createdAt,value
2023-03-15T00:03:06.014Z,2.60
2023-03-15T00:08:08.514Z,4.00
2023-03-15T00:13:12.514Z,2.90
2023-03-15T00:18:17.142Z,4.30
2023-03-15T00:23:20.429Z,8.10
2023-03-15T00:28:22.974Z,7.90
2023-03-15T00:33:25.454Z,4.20
2023-03-15T00:38:27.937Z,3.00
2023-03-15T00:43:30.770Z,3.40
2023-03-15T00:48:35.279Z,5.10
2023-03-15T00:53:40.699Z,4.90
2023-03-15T00:58:43.802Z,3.70
2023-03-15T01:03:47.140Z,4.10
2023-03-15T01:08:50.138Z,4.60
2023-03-15T01:13:55.104Z,3.00
2023-03-15T01:18:57.640Z,9.70
2023-03-15T01:24:00.254Z,5.00
2023-03-15T01:29:02.809Z,2.90
2023-03-15T01:34:06.514Z,2.30
2023-03-15T01:39:09.015Z,3.10
2023-03-15T01:44:16.375Z,2.00
2023-03-15T01:49:33.515Z,1.00
2023-03-15T01:54:43.595Z,4.60
2023-03-15T01:59:52.223Z,3.10
2023-03-15T02:05:00.709Z,3.50
2023-03-15T02:10:14.543Z,5.60
2023-03-15T02:15:17.585Z,5.00
2023-03-15T02:20:51.362Z,5.50
2023-03-15T02:26:21.581Z,12.30
2023-03-15T02:31:24.332Z,11.50
2023-03-15T02:36:29.689Z,14.40
2023-03-15T02:41:39.951Z,8.90
2023-03-15T02:46:45.890Z,9.00
2023-03-15T02:51:48.381Z,28.20
2023-03-15T02:56:51.373Z,24.70
2023-03-15T03:01:54.586Z,17.00
2023-03-15T03:06:57.155Z,17.50
2023-03-15T03:11:59.811Z,15.40
2023-03-15T03:17:02.372Z,12.60
2023-03-15T03:22:05.114Z,20.00
2023-03-15T03:27:07.817Z,9.00
2023-03-15T03:32:10.973Z,14.00
2023-03-15T03:37:17.943Z,11.90
2023-03-15T03:42:20.440Z,11.90
2023-03-15T03:47:22.947Z,4.60
2023-03-15T03:52:25.461Z,6.40
2023-03-15T03:57:27.930Z,8.90
2023-03-15T04:02:30.439Z,6.80
2023-03-15T04:07:33.111Z,8.60
2023-03-15T04:12:35.711Z,6.80
2023-03-15T04:17:39.259Z,11.50
2023-03-15T04:22:41.759Z,13.10
2023-03-15T04:27:44.714Z,19.20
2023-03-15T04:32:47.226Z,19.60
2023-03-15T04:37:49.730Z,11.40
2023-03-15T04:42:55.884Z,12.20
2023-03-15T04:47:59.181Z,17.50
2023-03-15T04:53:01.852Z,15.20
2023-03-15T04:58:04.385Z,16.00
2023-03-15T05:03:06.896Z,14.10
2023-03-15T05:08:09.335Z,15.20
2023-03-15T05:13:11.843Z,12.10
2023-03-15T05:18:14.346Z,15.00
2023-03-15T05:23:16.990Z,6.80
2023-03-15T05:28:21.210Z,11.30
2023-03-15T05:33:24.623Z,10.40
2023-03-15T05:38:27.208Z,7.30
2023-03-15T05:43:29.754Z,10.00
2023-03-15T05:48:32.416Z,7.70
2023-03-15T05:53:35.299Z,11.10
2023-03-15T05:58:38.192Z,7.40
2023-03-15T06:03:40.887Z,6.00
2023-03-15T06:08:43.475Z,5.10
2023-03-15T06:13:46.010Z,14.90
2023-03-15T06:18:48.531Z,7.00
2023-03-15T06:23:51.066Z,6.60
2023-03-15T06:28:53.809Z,8.60
2023-03-15T06:33:56.332Z,6.20
2023-03-15T06:38:58.906Z,8.30
2023-03-15T06:44:01.475Z,7.20
2023-03-15T06:49:04.016Z,8.00
2023-03-15T06:54:06.606Z,8.70
2023-03-15T06:59:09.110Z,6.70
2023-03-15T07:04:11.726Z,6.40
2023-03-15T07:09:14.282Z,13.50
2023-03-15T07:14:17.070Z,11.40
2023-03-15T07:19:20.267Z,13.60
2023-03-15T07:24:23.661Z,10.60
2023-03-15T07:29:29.539Z,5.40
2023-03-15T07:34:33.689Z,13.30
2023-03-15T07:39:38.696Z,10.00
2023-03-15T07:44:42.438Z,9.00
2023-03-15T07:49:45.579Z,6.80
2023-03-15T07:54:48.218Z,8.50
2023-03-15T07:59:52.625Z,11.70
2023-03-15T08:04:55.145Z,10.40
2023-03-15T08:09:59.228Z,6.90
2023-03-15T08:15:03.707Z,6.30
2023-03-15T08:20:11.947Z,10.90
2023-03-15T08:25:19.690Z,10.90
2023-03-15T08:30:24.060Z,7.10
2023-03-15T08:35:28.087Z,7.20
2023-03-15T08:40:31.405Z,8.80
2023-03-15T08:45:50.996Z,5.90
2023-03-15T08:51:02.463Z,6.00
2023-03-15T08:56:05.349Z,7.60
2023-03-15T09:01:08.128Z,3.60
2023-03-15T09:06:10.849Z,5.80
2023-03-15T09:11:13.845Z,5.60
2023-03-15T09:16:16.996Z,9.90
2023-03-15T09:21:19.549Z,3.50
2023-03-15T09:26:22.047Z,7.60
2023-03-15T09:31:24.974Z,7.40
2023-03-15T09:36:27.577Z,6.60
2023-03-15T09:41:56.629Z,6.20
2023-03-15T09:47:08.698Z,8.50
2023-03-15T09:52:17.744Z,3.50
2023-03-15T09:57:31.820Z,8.50
2023-03-15T10:02:35.203Z,11.80
2023-03-15T10:07:38.042Z,7.40
2023-03-15T10:12:46.480Z,9.70
2023-03-15T10:18:26.827Z,9.90
2023-03-15T10:23:59.811Z,14.40
2023-03-15T10:29:08.943Z,11.00
2023-03-15T10:34:12.318Z,13.00
2023-03-15T10:39:16.034Z,11.00
2023-03-15T10:44:24.484Z,13.90
2023-03-15T10:49:35.466Z,11.80
2023-03-15T10:54:41.810Z,17.20
2023-03-15T11:00:09.391Z,12.90
2023-03-15T11:05:14.950Z,13.00
2023-03-15T11:10:23.700Z,17.50
2023-03-15T11:15:26.197Z,20.00
2023-03-15T11:20:32.286Z,18.50
2023-03-15T11:25:34.864Z,10.90
2023-03-15T11:30:40.695Z,17.80
2023-03-15T11:35:49.853Z,12.40
2023-03-15T11:40:56.798Z,14.90
2023-03-15T11:46:05.030Z,11.00
2023-03-15T11:51:11.041Z,10.50
2023-03-15T11:56:22.964Z,9.30
2023-03-15T12:01:26.598Z,15.10
2023-03-15T12:06:38.643Z,10.20
2023-03-15T12:11:42.504Z,14.60
2023-03-15T12:16:46.498Z,19.30
2023-03-15T12:21:52.278Z,9.80
2023-03-15T12:27:01.794Z,7.40
2023-03-15T12:32:04.322Z,8.80
2023-03-15T12:37:17.160Z,7.60
2023-03-15T12:42:31.862Z,4.50
2023-03-15T12:47:45.229Z,4.30
2023-03-15T12:52:53.459Z,6.20
2023-03-15T12:57:57.981Z,6.90
2023-03-15T13:03:16.427Z,7.50
2023-03-15T13:08:27.412Z,7.80
2023-03-15T13:13:42.158Z,3.60
2023-03-15T13:18:56.895Z,8.20
2023-03-15T13:24:00.120Z,8.50
2023-03-15T13:29:32.904Z,9.20
2023-03-15T13:34:35.705Z,21.80
2023-03-15T13:39:38.290Z,33.30
2023-03-15T13:44:41.638Z,16.80
2023-03-15T13:49:44.146Z,12.80
2023-03-15T13:54:46.702Z,8.50
2023-03-15T14:00:10.568Z,19.10
2023-03-15T14:05:17.410Z,22.30
2023-03-15T14:10:25.542Z,16.60
2023-03-15T14:15:44.148Z,12.40
2023-03-15T14:20:53.561Z,9.80
2023-03-15T14:26:05.405Z,5.00
2023-03-15T14:31:08.127Z,10.80
2023-03-15T14:36:30.409Z,10.30
2023-03-15T14:41:33.338Z,4.70
2023-03-15T14:46:36.282Z,6.50
2023-03-15T14:51:38.874Z,5.80
2023-03-15T14:56:44.335Z,13.40
2023-03-15T15:01:51.497Z,18.60
2023-03-15T15:06:55.236Z,19.90
2023-03-15T15:11:57.747Z,16.90
2023-03-15T15:17:00.285Z,18.40
2023-03-15T15:22:03.239Z,17.70
2023-03-15T15:27:05.935Z,18.00
2023-03-15T15:32:08.549Z,53.30
2023-03-15T15:37:12.046Z,25.10
2023-03-15T15:42:14.718Z,4.70
2023-03-15T15:47:17.207Z,5.20
2023-03-15T15:52:19.767Z,7.40
2023-03-15T15:57:26.537Z,7.10
2023-03-15T16:02:29.573Z,9.40
2023-03-15T16:07:32.393Z,4.90
2023-03-15T16:12:35.212Z,5.00
2023-03-15T16:17:37.704Z,6.50
2023-03-15T16:22:44.225Z,9.30
2023-03-15T16:27:46.759Z,9.60
2023-03-15T16:32:49.747Z,9.70
2023-03-15T16:37:56.212Z,8.90
2023-03-15T16:42:59.402Z,5.70
2023-03-15T16:48:01.916Z,7.70
2023-03-15T16:53:08.466Z,6.60
2023-03-15T16:58:17.113Z,6.00
2023-03-15T17:03:19.717Z,8.50
2023-03-15T17:08:23.856Z,5.40
2023-03-15T17:13:29.801Z,6.70
2023-03-15T17:18:34.360Z,8.00
2023-03-15T17:23:36.973Z,12.60
2023-03-15T17:28:39.960Z,14.10
2023-03-15T17:33:43.152Z,27.90
2023-03-15T17:38:47.337Z,27.20
2023-03-15T17:43:51.177Z,25.40
2023-03-15T17:48:54.249Z,30.50
2023-03-15T17:53:59.245Z,35.30
2023-03-15T17:59:02.110Z,44.00
2023-03-15T18:04:06.281Z,30.80
2023-03-15T18:09:13.003Z,25.70
2023-03-15T18:14:16.233Z,25.50
2023-03-15T18:19:18.769Z,26.40
2023-03-15T18:24:21.273Z,16.20
2023-03-15T18:29:23.803Z,17.00
2023-03-15T18:34:26.341Z,18.80
2023-03-15T18:39:29.369Z,21.90
2023-03-15T18:44:32.056Z,26.00
2023-03-15T18:49:35.559Z,42.10
2023-03-15T18:54:38.073Z,39.20
2023-03-15T18:59:41.164Z,36.90
2023-03-15T19:04:43.646Z,34.90
2023-03-15T19:09:46.446Z,29.60
2023-03-15T19:14:49.102Z,35.70
2023-03-15T19:19:51.676Z,44.20
2023-03-15T19:24:54.189Z,35.90
2023-03-15T19:29:56.942Z,31.90
2023-03-15T19:34:59.850Z,29.80
2023-03-15T19:40:03.776Z,26.00
2023-03-15T19:45:07.116Z,32.50
2023-03-15T19:50:12.802Z,32.70
2023-03-15T19:55:20.668Z,27.80
2023-03-15T20:00:25.082Z,30.30
2023-03-15T20:05:27.865Z,29.90
2023-03-15T20:10:30.470Z,28.60
2023-03-15T20:15:33.054Z,29.20
2023-03-15T20:20:35.602Z,36.30
2023-03-15T20:25:38.118Z,35.30
2023-03-15T20:30:44.149Z,37.60
2023-03-15T20:35:46.769Z,34.30
2023-03-15T20:40:54.006Z,30.70
2023-03-15T20:45:59.668Z,30.80
2023-03-15T20:51:06.035Z,30.30
2023-03-15T20:56:08.585Z,33.30
2023-03-15T21:01:16.709Z,50.00
2023-03-15T21:06:19.297Z,44.00
2023-03-15T21:11:21.813Z,36.40
2023-03-15T21:16:26.067Z,32.50
2023-03-15T21:21:29.057Z,31.80
2023-03-15T21:26:31.778Z,33.40
2023-03-15T21:31:36.459Z,34.40
2023-03-15T21:36:39.040Z,28.30
2023-03-15T21:41:41.612Z,23.30
2023-03-15T21:46:44.275Z,24.00
2023-03-15T21:51:47.007Z,29.10
2023-03-15T21:56:49.556Z,31.90
2023-03-15T22:01:53.595Z,26.50
2023-03-15T22:06:56.119Z,28.50
2023-03-15T22:11:58.757Z,31.80
2023-03-15T22:17:04.606Z,34.10
2023-03-15T22:22:07.303Z,31.70
2023-03-15T22:27:09.760Z,28.80
2023-03-15T22:32:12.525Z,27.60
2023-03-15T22:37:15.022Z,31.60
2023-03-15T22:42:17.529Z,26.20
2023-03-15T22:47:20.041Z,23.40
2023-03-15T22:52:22.530Z,22.40
2023-03-15T22:57:25.079Z,26.30
2023-03-15T23:02:27.820Z,29.70
2023-03-15T23:07:30.343Z,26.30
2023-03-15T23:12:36.304Z,21.80
2023-03-15T23:17:39.285Z,24.30
2023-03-15T23:22:42.012Z,21.10
2023-03-15T23:27:44.525Z,29.00
2023-03-15T23:32:48.953Z,22.00
2023-03-15T23:37:53.038Z,17.60
2023-03-15T23:42:59.118Z,19.60
2023-03-15T23:53:05.093Z,24.90
2023-03-15T23:58:08.458Z,19.20
